createdAt,value
2022-12-11T00:00:26.397Z,38.37
2022-12-11T00:02:53.385Z,37.60
2022-12-11T00:05:20.533Z,41.52
2022-12-11T00:07:47.598Z,41.51
2022-12-11T00:10:14.497Z,41.30
2022-12-11T00:12:41.570Z,40.11
2022-12-11T00:15:09.226Z,40.67
2022-12-11T00:17:36.562Z,39.19
2022-12-11T00:20:04.992Z,41.20
2022-12-11T00:22:31.879Z,40.68
2022-12-11T00:24:58.742Z,40.60
2022-12-11T00:27:25.704Z,41.84
2022-12-11T00:29:52.741Z,43.83
2022-12-11T00:32:19.801Z,44.30
2022-12-11T00:34:46.777Z,44.30
2022-12-11T00:37:14.119Z,46.57
2022-12-11T00:39:41.218Z,43.36
2022-12-11T00:42:08.701Z,43.95
2022-12-11T00:44:36.088Z,42.43
2022-12-11T00:47:03.937Z,42.86
2022-12-11T00:49:31.275Z,41.49
2022-12-11T00:51:58.328Z,42.77
2022-12-11T00:54:25.214Z,41.92
2022-12-11T00:56:52.234Z,42.14
2022-12-11T00:59:19.290Z,41.14
2022-12-11T01:01:46.326Z,41.74
2022-12-11T01:04:13.528Z,40.59
2022-12-11T01:06:40.625Z,40.48
2022-12-11T01:09:26.233Z,43.33
2022-12-11T01:11:53.561Z,41.28
2022-12-11T01:14:20.417Z,41.43
2022-12-11T01:16:47.530Z,42.81
2022-12-11T01:19:14.832Z,43.10
2022-12-11T01:21:41.678Z,45.37
2022-12-11T01:24:08.528Z,47.05
2022-12-11T01:26:35.961Z,45.71
2022-12-11T01:29:03.453Z,50.06
2022-12-11T01:31:30.549Z,48.85
2022-12-11T01:33:57.652Z,49.86
2022-12-11T01:36:24.709Z,47.99
2022-12-11T01:38:53.581Z,48.31
2022-12-11T01:41:21.766Z,48.61
2022-12-11T01:44:08.749Z,50.45
2022-12-11T01:46:36.582Z,48.82
2022-12-11T01:49:08.973Z,50.92
2022-12-11T01:51:49.422Z,51.49
2022-12-11T01:54:20.275Z,51.89
2022-12-11T01:56:49.937Z,52.31
2022-12-11T01:59:23.484Z,54.83
2022-12-11T02:01:59.140Z,52.90
2022-12-11T02:04:29.339Z,53.94
2022-12-11T02:06:56.289Z,54.15
2022-12-11T02:09:33.288Z,54.56
2022-12-11T02:12:18.218Z,55.73
2022-12-11T02:14:57.337Z,52.88
2022-12-11T02:17:33.667Z,53.05
2022-12-11T02:20:22.843Z,53.55
2022-12-11T02:22:52.477Z,53.15
2022-12-11T02:25:35.855Z,52.14
2022-12-11T02:28:14.892Z,53.22
2022-12-11T02:30:47.313Z,53.66
2022-12-11T02:33:18.347Z,53.04
2022-12-11T02:35:48.340Z,51.04
2022-12-11T02:38:27.073Z,50.93
2022-12-11T02:40:58.035Z,52.33
2022-12-11T02:43:25.563Z,52.13
2022-12-11T02:45:54.322Z,51.20
2022-12-11T02:48:24.338Z,50.97
2022-12-11T02:50:56.077Z,51.38
2022-12-11T02:53:28.670Z,50.17
2022-12-11T02:56:10.864Z,49.17
2022-12-11T02:58:47.618Z,48.20
2022-12-11T03:01:14.670Z,47.94
2022-12-11T03:03:42.317Z,48.57
2022-12-11T03:06:18.267Z,48.19
2022-12-11T03:08:45.135Z,48.32
2022-12-11T03:11:13.353Z,47.93
2022-12-11T03:13:42.518Z,47.75
2022-12-11T03:16:41.709Z,46.53
2022-12-11T03:19:35.438Z,46.20
2022-12-11T03:22:36.908Z,46.76
2022-12-11T03:25:10.465Z,47.65
2022-12-11T03:27:50.549Z,48.66
2022-12-11T03:30:22.110Z,46.81
2022-12-11T03:32:58.199Z,47.40
2022-12-11T03:35:28.272Z,45.65
2022-12-11T03:38:01.979Z,46.21
2022-12-11T03:40:35.506Z,44.15
2022-12-11T03:43:05.144Z,45.19
2022-12-11T03:45:34.926Z,45.64
2022-12-11T03:48:03.261Z,46.28
2022-12-11T03:50:34.260Z,45.15
2022-12-11T03:53:04.707Z,44.97
2022-12-11T03:55:34.317Z,44.34
2022-12-11T03:58:01.358Z,43.59
2022-12-11T04:00:29.546Z,45.06
2022-12-11T04:03:15.912Z,44.60
2022-12-11T04:05:46.469Z,43.14
2022-12-11T04:08:14.389Z,44.21
2022-12-11T04:10:42.069Z,43.79
2022-12-11T04:13:10.669Z,43.35
2022-12-11T04:15:39.488Z,42.72
2022-12-11T04:18:26.650Z,43.06
2022-12-11T04:21:13.572Z,43.00
2022-12-11T04:23:59.351Z,41.70
2022-12-11T04:26:26.889Z,41.74
2022-12-11T04:28:54.397Z,41.94
2022-12-11T04:31:22.522Z,41.99
2022-12-11T04:33:49.515Z,43.52
2022-12-11T04:36:16.922Z,44.20
2022-12-11T04:38:43.756Z,43.61
2022-12-11T04:41:14.719Z,41.78
2022-12-11T04:43:44.908Z,41.89
2022-12-11T04:46:20.522Z,41.52
2022-12-11T04:48:53.838Z,41.00
2022-12-11T04:51:24.063Z,40.68
2022-12-11T04:53:50.900Z,40.35
2022-12-11T04:56:17.796Z,40.60
2022-12-11T04:58:46.483Z,40.22
2022-12-11T05:01:16.456Z,39.60
2022-12-11T05:03:43.727Z,39.29
2022-12-11T05:06:12.081Z,38.94
2022-12-11T05:08:41.625Z,38.87
2022-12-11T05:11:12.041Z,37.58
2022-12-11T05:13:40.114Z,38.37
2022-12-11T05:16:09.591Z,40.06
2022-12-11T05:18:36.796Z,41.92
2022-12-11T05:21:07.194Z,39.88
2022-12-11T05:23:34.583Z,38.18
2022-12-11T05:26:05.389Z,36.20
2022-12-11T05:28:35.596Z,37.25
2022-12-11T05:31:09.263Z,38.94
2022-12-11T05:33:36.291Z,39.31
2022-12-11T05:36:03.977Z,37.74
2022-12-11T05:38:30.964Z,37.59
2022-12-11T05:41:06.552Z,37.45
2022-12-11T05:43:35.931Z,37.71
2022-12-11T05:46:08.185Z,36.99
2022-12-11T05:48:35.312Z,37.37
2022-12-11T05:51:02.931Z,37.35
2022-12-11T05:53:30.127Z,36.92
2022-12-11T05:56:06.104Z,37.61
2022-12-11T05:58:34.423Z,37.87
2022-12-11T06:01:02.860Z,38.03
2022-12-11T06:03:29.860Z,38.20
2022-12-11T06:05:56.844Z,38.75
2022-12-11T06:08:23.727Z,38.25
2022-12-11T06:10:50.876Z,38.23
2022-12-11T06:13:18.280Z,39.00
2022-12-11T06:15:45.316Z,37.31
2022-12-11T06:18:12.166Z,38.35
2022-12-11T06:20:39.020Z,38.04
2022-12-11T06:23:06.043Z,38.38
2022-12-11T06:25:33.473Z,38.59
2022-12-11T06:28:01.002Z,38.12
2022-12-11T06:30:38.652Z,38.88
2022-12-11T06:33:06.495Z,40.98
2022-12-11T06:35:40.057Z,40.45
2022-12-11T06:38:10.406Z,42.59
2022-12-11T06:40:38.089Z,41.24
2022-12-11T06:43:04.950Z,39.14
2022-12-11T06:45:31.974Z,40.24
2022-12-11T06:47:58.819Z,39.69
2022-12-11T06:50:26.299Z,41.11
2022-12-11T06:52:53.170Z,40.37
2022-12-11T06:55:19.999Z,40.00
2022-12-11T06:57:47.016Z,41.17
2022-12-11T07:00:14.465Z,41.48
2022-12-11T07:02:41.527Z,40.16
2022-12-11T07:05:08.796Z,40.07
2022-12-11T07:07:35.950Z,37.93
2022-12-11T07:10:08.037Z,39.03
2022-12-11T07:12:36.702Z,39.06
2022-12-11T07:15:05.108Z,39.04
2022-12-11T07:17:32.265Z,38.51
2022-12-11T07:19:59.105Z,38.36
2022-12-11T07:22:26.293Z,39.72
2022-12-11T07:24:53.103Z,37.83
2022-12-11T07:27:19.928Z,38.58
2022-12-11T07:29:46.965Z,39.42
2022-12-11T07:32:14.463Z,39.10
2022-12-11T07:34:41.376Z,36.79
2022-12-11T07:37:08.459Z,35.42
2022-12-11T07:39:35.278Z,36.41
2022-12-11T07:42:02.143Z,36.18
2022-12-11T07:44:29.324Z,34.00
2022-12-11T07:46:56.472Z,30.60
2022-12-11T07:49:23.493Z,28.61
2022-12-11T07:51:50.515Z,28.72
2022-12-11T07:54:17.617Z,28.17
2022-12-11T07:56:51.188Z,28.14
2022-12-11T07:59:20.955Z,24.90
2022-12-11T08:01:48.163Z,24.38
2022-12-11T08:04:15.739Z,24.37
2022-12-11T08:06:43.156Z,24.75
2022-12-11T08:09:20.734Z,24.53
2022-12-11T08:11:52.070Z,24.10
2022-12-11T08:14:19.698Z,24.46
2022-12-11T08:16:46.950Z,30.72
2022-12-11T08:19:14.988Z,24.72
2022-12-11T08:21:41.964Z,25.84
2022-12-11T08:24:20.109Z,24.04
2022-12-11T08:26:48.315Z,24.15
2022-12-11T08:29:15.317Z,23.85
2022-12-11T08:31:42.648Z,24.18
2022-12-11T08:34:13.668Z,24.52
2022-12-11T08:36:41.183Z,24.40
2022-12-11T08:39:08.532Z,24.18
2022-12-11T08:41:36.029Z,25.12
2022-12-11T08:44:02.942Z,24.61
2022-12-11T08:46:32.247Z,23.80
2022-12-11T08:48:59.439Z,24.99
2022-12-11T08:51:28.808Z,25.29
2022-12-11T08:53:58.677Z,24.97
2022-12-11T08:56:27.281Z,23.74
2022-12-11T08:58:54.526Z,24.32
2022-12-11T09:01:24.620Z,24.76
2022-12-11T09:03:55.167Z,24.41
2022-12-11T09:06:25.314Z,24.61
2022-12-11T09:08:54.232Z,23.96
2022-12-11T09:11:24.536Z,22.42
2022-12-11T09:13:52.424Z,23.73
2022-12-11T09:16:22.444Z,23.10
2022-12-11T09:18:51.585Z,22.72
2022-12-11T09:21:22.362Z,23.10
2022-12-11T09:23:53.410Z,23.26
2022-12-11T09:26:20.372Z,23.17
2022-12-11T09:28:48.323Z,23.69
2022-12-11T09:31:23.456Z,22.91
2022-12-11T09:33:52.036Z,23.48
2022-12-11T09:36:19.063Z,23.44
2022-12-11T09:38:46.346Z,23.00
2022-12-11T09:41:22.428Z,25.45
2022-12-11T09:44:12.284Z,28.24
2022-12-11T09:46:41.222Z,41.21
2022-12-11T09:49:28.608Z,32.43
2022-12-11T09:52:05.794Z,32.78
2022-12-11T09:54:34.252Z,29.71
2022-12-11T09:57:37.443Z,29.37
2022-12-11T10:00:24.366Z,27.79
2022-12-11T10:03:02.496Z,31.53
2022-12-11T10:05:48.373Z,28.05
2022-12-11T10:08:34.327Z,25.05
2022-12-11T10:11:10.405Z,25.00
2022-12-11T10:14:15.061Z,24.45
2022-12-11T10:16:45.179Z,25.12
2022-12-11T10:19:22.793Z,22.88
2022-12-11T10:21:52.536Z,25.23
2022-12-11T10:24:50.127Z,30.31
2022-12-11T10:27:16.553Z,35.78
2022-12-11T10:29:43.623Z,78.21
2022-12-11T10:32:24.560Z,30.04
2022-12-11T10:35:02.723Z,25.66
2022-12-11T10:37:29.797Z,34.75
2022-12-11T10:39:56.696Z,31.40
2022-12-11T10:42:24.077Z,31.69
2022-12-11T10:44:58.848Z,40.99
2022-12-11T10:47:26.124Z,35.54
2022-12-11T10:49:59.068Z,27.63
2022-12-11T10:52:31.743Z,30.12
2022-12-11T10:55:03.269Z,26.53
2022-12-11T10:57:36.994Z,26.75
2022-12-11T11:00:08.972Z,26.48
2022-12-11T11:02:41.648Z,25.32
2022-12-11T11:05:26.803Z,26.85
2022-12-11T11:08:23.562Z,22.89
2022-12-11T11:11:01.459Z,32.92
2022-12-11T11:13:32.642Z,29.15
2022-12-11T11:16:04.547Z,25.04
2022-12-11T11:18:32.248Z,38.78
2022-12-11T11:21:00.765Z,37.57
2022-12-11T11:23:29.584Z,30.39
2022-12-11T11:26:09.386Z,29.74
2022-12-11T11:28:40.334Z,28.10
2022-12-11T11:31:13.701Z,26.59
2022-12-11T11:33:58.074Z,30.04
2022-12-11T11:36:28.273Z,29.23
2022-12-11T11:39:19.797Z,30.34
2022-12-11T11:41:57.292Z,30.19
2022-12-11T11:44:36.905Z,28.97
2022-12-11T11:47:12.627Z,35.15
2022-12-11T11:50:15.749Z,39.85
2022-12-11T11:53:02.312Z,37.79
2022-12-11T11:56:01.878Z,34.36
2022-12-11T11:58:59.937Z,39.35
2022-12-11T12:01:27.554Z,31.34
2022-12-11T12:03:56.303Z,30.60
2022-12-11T12:06:59.794Z,35.30
2022-12-11T12:09:51.576Z,26.65
2022-12-11T12:12:57.540Z,27.31
2022-12-11T12:15:36.378Z,26.02
2022-12-11T12:18:21.554Z,27.79
2022-12-11T12:21:00.035Z,29.93
2022-12-11T12:23:49.587Z,24.87
2022-12-11T12:26:39.641Z,21.96
2022-12-11T12:29:58.177Z,23.11
2022-12-11T12:32:25.627Z,22.82
2022-12-11T12:35:14.082Z,26.16
2022-12-11T12:38:03.440Z,22.86
2022-12-11T12:40:41.112Z,24.46
2022-12-11T12:43:34.157Z,22.98
2022-12-11T12:46:19.721Z,22.78
2022-12-11T12:48:46.640Z,22.24
2022-12-11T12:51:16.056Z,22.93
2022-12-11T12:53:53.179Z,22.29
2022-12-11T12:56:22.559Z,22.63
2022-12-11T12:58:49.633Z,30.78
2022-12-11T13:01:24.035Z,28.81
2022-12-11T13:03:55.716Z,23.35
2022-12-11T13:06:40.534Z,21.28
2022-12-11T13:09:13.699Z,21.17
2022-12-11T13:11:40.975Z,21.91
2022-12-11T13:14:13.498Z,23.12
2022-12-11T13:16:43.703Z,22.26
2022-12-11T13:19:22.527Z,23.91
2022-12-11T13:22:17.530Z,30.30
2022-12-11T13:24:50.217Z,22.70
2022-12-11T13:27:26.161Z,23.61
2022-12-11T13:30:25.400Z,23.57
2022-12-11T13:33:06.413Z,28.50
2022-12-11T13:35:35.309Z,23.16
2022-12-11T13:38:19.067Z,25.22
2022-12-11T13:40:53.452Z,26.96
2022-12-11T13:43:30.976Z,24.10
2022-12-11T13:46:03.137Z,22.56
2022-12-11T13:48:41.113Z,20.86
2022-12-11T13:51:08.134Z,28.19
2022-12-11T13:53:35.006Z,23.28
2022-12-11T13:56:07.597Z,21.56
2022-12-11T13:58:38.486Z,23.71
2022-12-11T14:01:15.611Z,23.57
2022-12-11T14:03:58.372Z,23.71
2022-12-11T14:06:28.396Z,22.67
2022-12-11T14:09:00.253Z,21.82
2022-12-11T14:11:34.950Z,22.50
2022-12-11T14:14:06.383Z,29.22
2022-12-11T14:16:34.293Z,27.72
2022-12-11T14:19:08.346Z,24.59
2022-12-11T14:21:36.423Z,26.86
2022-12-11T14:24:06.444Z,25.53
2022-12-11T14:26:38.599Z,26.13
2022-12-11T14:29:06.903Z,26.15
2022-12-11T14:31:42.811Z,28.86
2022-12-11T14:34:20.483Z,24.13
2022-12-11T14:36:49.370Z,23.53
2022-12-11T14:39:25.591Z,23.73
2022-12-11T14:42:20.154Z,23.68
2022-12-11T14:45:16.685Z,23.86
2022-12-11T14:47:44.769Z,23.88
2022-12-11T14:50:27.406Z,24.44
2022-12-11T14:53:01.932Z,26.35
2022-12-11T14:55:34.820Z,30.34
2022-12-11T14:58:07.530Z,31.26
2022-12-11T15:00:36.973Z,29.15
2022-12-11T15:03:20.197Z,31.09
2022-12-11T15:05:54.890Z,27.32
2022-12-11T15:08:31.813Z,23.81
2022-12-11T15:11:13.149Z,22.73
2022-12-11T15:14:04.673Z,24.12
2022-12-11T15:16:37.442Z,25.22
2022-12-11T15:19:05.249Z,24.88
2022-12-11T15:21:35.836Z,21.19
2022-12-11T15:24:05.962Z,21.59
2022-12-11T15:26:45.549Z,22.77
2022-12-11T15:29:30.406Z,21.35
2022-12-11T15:32:09.653Z,22.81
2022-12-11T15:34:47.903Z,22.63
2022-12-11T15:37:19.708Z,20.66
2022-12-11T15:39:46.603Z,21.11
2022-12-11T15:42:20.871Z,23.37
2022-12-11T15:44:47.995Z,21.31
2022-12-11T15:47:19.637Z,20.65
2022-12-11T15:49:46.891Z,20.18
2022-12-11T15:52:13.918Z,24.35
2022-12-11T15:54:41.038Z,28.46
2022-12-11T15:57:16.487Z,23.32
2022-12-11T15:59:47.454Z,23.37
2022-12-11T16:02:15.250Z,22.32
2022-12-11T16:04:42.276Z,41.11
2022-12-11T16:07:18.874Z,41.77
2022-12-11T16:09:47.003Z,22.75
2022-12-11T16:12:14.285Z,20.32
2022-12-11T16:14:42.155Z,23.40
2022-12-11T16:17:10.911Z,30.37
2022-12-11T16:19:38.982Z,22.77
2022-12-11T16:22:08.517Z,25.29
2022-12-11T16:24:35.953Z,27.27
2022-12-11T16:27:03.810Z,40.87
2022-12-11T16:29:41.287Z,30.25
2022-12-11T16:32:08.659Z,27.21
2022-12-11T16:34:37.488Z,26.15
2022-12-11T16:37:08.355Z,33.16
2022-12-11T16:39:37.486Z,31.78
2022-12-11T16:42:05.966Z,23.74
2022-12-11T16:44:33.358Z,21.42
2022-12-11T16:47:00.514Z,22.88
2022-12-11T16:49:27.617Z,25.42
2022-12-11T16:51:54.678Z,25.00
2022-12-11T16:54:21.771Z,24.34
2022-12-11T16:56:48.682Z,23.07
2022-12-11T16:59:15.610Z,20.99
2022-12-11T17:01:42.697Z,22.77
2022-12-11T17:04:10.206Z,24.22
2022-12-11T17:06:37.119Z,25.37
2022-12-11T17:09:04.004Z,26.59
2022-12-11T17:11:31.108Z,26.25
2022-12-11T17:13:59.736Z,25.11
2022-12-11T17:16:33.839Z,27.22
2022-12-11T17:19:02.899Z,27.70
2022-12-11T17:21:30.157Z,23.73
2022-12-11T17:23:57.232Z,23.80
2022-12-11T17:26:25.370Z,24.09
2022-12-11T17:28:52.453Z,29.48
2022-12-11T17:31:19.955Z,31.66
2022-12-11T17:33:48.036Z,28.43
2022-12-11T17:36:17.317Z,25.11
2022-12-11T17:38:45.284Z,23.58
2022-12-11T17:41:20.353Z,23.32
2022-12-11T17:43:52.867Z,23.79
2022-12-11T17:46:21.205Z,26.04
2022-12-11T17:48:48.870Z,26.77
2022-12-11T17:51:23.648Z,25.16
2022-12-11T17:53:51.602Z,26.12
2022-12-11T17:56:18.641Z,25.79
2022-12-11T17:58:45.768Z,28.47
2022-12-11T18:01:13.236Z,33.24
2022-12-11T18:03:41.317Z,28.75
2022-12-11T18:06:14.684Z,26.61
2022-12-11T18:08:42.774Z,27.95
2022-12-11T18:11:16.703Z,35.80
2022-12-11T18:13:45.448Z,54.50
2022-12-11T18:16:17.472Z,46.99
2022-12-11T18:18:46.281Z,34.40
2022-12-11T18:21:25.556Z,33.30
2022-12-11T18:23:53.117Z,30.37
2022-12-11T18:26:20.860Z,28.33
2022-12-11T18:28:49.350Z,29.32
2022-12-11T18:31:17.855Z,27.76
2022-12-11T18:33:46.118Z,32.19
2022-12-11T18:36:15.625Z,29.07
2022-12-11T18:38:43.132Z,33.54
2022-12-11T18:41:13.072Z,31.12
2022-12-11T18:43:40.689Z,25.12
2022-12-11T18:46:10.138Z,26.60
2022-12-11T18:48:37.333Z,26.48
2022-12-11T18:51:11.008Z,32.77
2022-12-11T18:53:41.452Z,30.92
2022-12-11T18:56:11.846Z,26.64
2022-12-11T18:58:39.438Z,26.57
2022-12-11T19:01:13.951Z,25.33
2022-12-11T19:03:41.254Z,23.59
2022-12-11T19:06:18.124Z,23.96
2022-12-11T19:08:45.437Z,23.41
2022-12-11T19:11:18.491Z,23.21
2022-12-11T19:13:45.995Z,41.55
2022-12-11T19:16:18.449Z,30.02
2022-12-11T19:18:46.258Z,23.11
2022-12-11T19:21:15.375Z,23.14
2022-12-11T19:23:43.661Z,22.38
2022-12-11T19:26:13.544Z,22.24
2022-12-11T19:28:40.688Z,22.30
2022-12-11T19:31:13.774Z,24.75
2022-12-11T19:33:42.129Z,24.39
2022-12-11T19:36:12.241Z,25.61
2022-12-11T19:38:41.521Z,25.42
2022-12-11T19:41:21.674Z,27.20
2022-12-11T19:43:50.785Z,31.18
2022-12-11T19:46:19.149Z,32.17
2022-12-11T19:48:49.359Z,33.70
2022-12-11T19:51:22.992Z,42.41
2022-12-11T19:53:50.765Z,46.29
2022-12-11T19:56:19.851Z,30.74
2022-12-11T19:58:48.098Z,27.32
2022-12-11T20:01:28.842Z,29.06
2022-12-11T20:03:59.979Z,28.71
2022-12-11T20:06:28.584Z,29.01
2022-12-11T20:08:55.837Z,28.07
2022-12-11T20:11:23.054Z,25.38
2022-12-11T20:13:51.233Z,24.10
2022-12-11T20:16:28.888Z,23.78
2022-12-11T20:19:06.751Z,23.99
2022-12-11T20:21:34.477Z,23.87
2022-12-11T20:24:01.604Z,22.73
2022-12-11T20:26:30.908Z,22.71
2022-12-11T20:28:58.062Z,23.56
2022-12-11T20:31:26.264Z,23.65
2022-12-11T20:33:56.205Z,24.90
2022-12-11T20:36:25.270Z,24.72
2022-12-11T20:38:52.915Z,24.88
2022-12-11T20:41:22.820Z,26.02
2022-12-11T20:43:50.840Z,24.43
2022-12-11T20:46:18.314Z,22.93
2022-12-11T20:48:46.541Z,21.96
2022-12-11T20:51:19.690Z,26.09
2022-12-11T20:53:57.372Z,36.64
2022-12-11T20:56:27.799Z,38.59
2022-12-11T20:58:55.891Z,34.11
2022-12-11T21:01:25.548Z,30.52
2022-12-11T21:03:53.448Z,31.61
2022-12-11T21:06:46.817Z,30.60
2022-12-11T21:09:19.167Z,33.50
2022-12-11T21:11:46.163Z,31.15
2022-12-11T21:14:13.410Z,27.14
2022-12-11T21:16:40.494Z,23.81
2022-12-11T21:19:12.447Z,22.41
2022-12-11T21:21:45.194Z,22.73
2022-12-11T21:24:15.546Z,23.09
2022-12-11T21:26:42.958Z,23.15
2022-12-11T21:29:10.015Z,24.74
2022-12-11T21:31:36.792Z,28.95
2022-12-11T21:34:03.922Z,26.31
2022-12-11T21:36:31.189Z,24.00
2022-12-11T21:38:59.176Z,22.58
2022-12-11T21:41:26.811Z,21.60
2022-12-11T21:45:07.198Z,22.43
2022-12-11T21:46:43.500Z,26.47
2022-12-11T21:49:10.611Z,26.04
2022-12-11T21:51:44.048Z,23.80
2022-12-11T21:54:18.103Z,23.57
2022-12-11T21:56:45.964Z,22.89
2022-12-11T21:59:13.524Z,23.07
2022-12-11T22:01:43.758Z,22.63
2022-12-11T22:04:11.497Z,23.82
2022-12-11T22:06:41.852Z,24.55
2022-12-11T22:09:10.616Z,23.13
2022-12-11T22:11:37.853Z,23.76
2022-12-11T22:14:06.665Z,27.40
2022-12-11T22:16:34.761Z,31.71
2022-12-11T22:19:01.811Z,25.19
2022-12-11T22:21:29.031Z,23.84
2022-12-11T22:23:56.319Z,23.86
2022-12-11T22:26:26.344Z,32.42
2022-12-11T22:28:54.391Z,31.30
2022-12-11T22:31:26.227Z,30.38
2022-12-11T22:33:54.786Z,28.38
2022-12-11T22:36:23.670Z,33.02
2022-12-11T22:38:51.333Z,35.81
2022-12-11T22:41:28.695Z,25.92
2022-12-11T22:43:56.630Z,24.07
2022-12-11T22:46:26.950Z,23.57
2022-12-11T22:48:54.911Z,24.11
2022-12-11T22:51:22.864Z,24.20
2022-12-11T22:53:50.202Z,24.17
2022-12-11T22:56:17.197Z,24.80
2022-12-11T22:58:44.256Z,24.89
2022-12-11T23:01:14.432Z,24.95
2022-12-11T23:03:41.502Z,25.33
2022-12-11T23:06:11.379Z,25.43
2022-12-11T23:08:39.985Z,24.83
2022-12-11T23:11:21.160Z,25.47
2022-12-11T23:13:48.281Z,23.72
2022-12-11T23:16:15.390Z,22.36
2022-12-11T23:18:43.177Z,21.77
2022-12-11T23:21:11.671Z,21.02
2022-12-11T23:23:39.305Z,21.33
2022-12-11T23:26:09.142Z,20.53
2022-12-11T23:28:36.205Z,20.79
2022-12-11T23:31:03.639Z,21.23
2022-12-11T23:33:30.697Z,20.18
2022-12-11T23:35:58.622Z,20.32
2022-12-11T23:38:26.232Z,20.55
2022-12-11T23:40:53.565Z,21.63
2022-12-11T23:43:21.864Z,22.03
2022-12-11T23:45:49.183Z,21.28
2022-12-11T23:48:16.508Z,21.92
2022-12-11T23:50:44.855Z,21.08
2022-12-11T23:53:12.225Z,22.13
2022-12-11T23:55:44.370Z,24.03
2022-12-11T23:58:11.763Z,23.42
